| time (UTC) | temp F | wind direction | speed MPH | gust MPH | rain 1hr in | rain 24hr in | rain mn in | humidity % | barometer mb |
| 20260507214354 | 75 | 101 | 0.0 | 0.0 | 0.00 | 0.00 | 0.00 | 89 | 1006.9 |
| 20260507213849 | 75 | 35 | 2.0 | 3.0 | 0.00 | 0.00 | 0.00 | 89 | 1006.7 |
| 20260507213346 | 75 | 74 | 0.0 | 0.0 | 0.00 | 0.00 | 0.00 | 89 | 1006.8 |
| 20260507212843 | 75 | 109 | 0.0 | 1.0 | 0.00 | 0.00 | 0.00 | 89 | 1006.9 |
| 20260507212339 | 75 | 79 | 0.0 | 0.0 | 0.00 | 0.00 | 0.00 | 90 | 1006.8 |
| 20260507211836 | 75 | 56 | 0.0 | 0.0 | 0.00 | 0.00 | 0.00 | 90 | 1006.8 |
| 20260507211332 | 75 | 125 | 0.0 | 2.0 | 0.00 | 0.00 | 0.00 | 90 | 1006.8 |
| 20260507210829 | 75 | 100 | 1.0 | 1.0 | 0.00 | 0.00 | 0.00 | 90 | 1007.0 |
| 20260507210326 | 75 | 136 | 0.0 | 1.0 | 0.00 | 0.00 | 0.00 | 90 | 1006.9 |
| 20260507205823 | 75 | 316 | 0.0 | 0.0 | 0.00 | 0.00 | 0.00 | 89 | 1007.0 |
| 20260507205320 | 75 | 281 | 1.0 | 2.0 | 0.00 | 0.00 | 0.00 | 89 | 1007.2 |
| 20260507204815 | 75 | 111 | 0.0 | 2.0 | 0.00 | 0.00 | 0.00 | 89 | 1007.1 |
| 20260507204313 | 75 | 167 | 0.0 | 0.0 | 0.00 | 0.00 | 0.00 | 89 | 1007.0 |
| 20260507203811 | 75 | 178 | 0.0 | 1.0 | 0.00 | 0.00 | 0.00 | 88 | 1007.1 |
| 20260507203309 | 75 | 148 | 0.0 | 1.0 | 0.00 | 0.00 | 0.00 | 88 | 1007.5 |
| 20260507202805 | 75 | 120 | 2.0 | 3.0 | 0.00 | 0.00 | 0.00 | 88 | 1006.9 |
| 20260507202301 | 75 | 131 | 0.0 | 0.0 | 0.00 | 0.00 | 0.00 | 88 | 1007.1 |
| 20260507201756 | 76 | 142 | 0.0 | 0.0 | 0.00 | 0.00 | 0.00 | 87 | 1007.1 |
| 20260507201252 | 76 | 166 | 2.0 | 3.0 | 0.00 | 0.00 | 0.00 | 87 | 1007.1 |
| 20260507200749 | 76 | 132 | 0.0 | 0.0 | 0.00 | 0.00 | 0.00 | 87 | 1007.2 |
| 20260507200245 | 76 | 90 | 0.0 | 1.0 | 0.00 | 0.00 | 0.00 | 87 | 1007.5 |
| 20260507195741 | 76 | 82 | 0.0 | 0.0 | 0.00 | 0.00 | 0.00 | 86 | 1007.5 |
| 20260507195239 | 76 | 125 | 3.0 | 5.0 | 0.00 | 0.00 | 0.00 | 86 | 1007.5 |
| 20260507194736 | 76 | 245 | 0.0 | 0.0 | 0.00 | 0.00 | 0.00 | 86 | 1007.5 |
| 20260507194232 | 76 | 60 | 1.0 | 3.0 | 0.00 | 0.00 | 0.00 | 86 | 1007.7 |
| 20260507193729 | 76 | 149 | 0.0 | 0.0 | 0.00 | 0.00 | 0.00 | 86 | 1007.9 |
| 20260507193225 | 76 | 109 | 0.0 | 0.0 | 0.00 | 0.00 | 0.00 | 86 | 1007.6 |
| 20260507192722 | 76 | 143 | 0.0 | 0.0 | 0.00 | 0.00 | 0.00 | 85 | 1007.5 |
| 20260507192219 | 76 | 193 | 0.0 | 0.0 | 0.00 | 0.00 | 0.00 | 85 | 1007.8 |
| 20260507191714 | 77 | 166 | 0.0 | 0.0 | 0.00 | 0.00 | 0.00 | 84 | 1007.8 |
| 20260507191212 | 77 | 127 | 2.0 | 3.0 | 0.00 | 0.00 | 0.00 | 83 | 1007.7 |
| 20260507190708 | 77 | 127 | 0.0 | 1.0 | 0.00 | 0.00 | 0.00 | 83 | 1007.7 |
| 20260507190207 | 77 | 170 | 0.0 | 1.0 | 0.00 | 0.00 | 0.00 | 82 | 1008.0 |
| 20260507185705 | 77 | 125 | 0.0 | 1.0 | 0.00 | 0.00 | 0.00 | 81 | 1007.9 |
| 20260507185202 | 78 | 162 | 1.0 | 3.0 | 0.00 | 0.00 | 0.00 | 80 | 1008.2 |
| 20260507184659 | 78 | 123 | 0.0 | 1.0 | 0.00 | 0.00 | 0.00 | 78 | 1008.1 |
| 20260507184157 | 78 | 144 | 0.0 | 1.0 | 0.00 | 0.00 | 0.00 | 77 | 1008.3 |
| 20260507183653 | 78 | 42 | 0.0 | 0.0 | 0.00 | 0.00 | 0.00 | 77 | 1008.3 |
| 20260507183150 | 78 | 177 | 2.0 | 5.0 | 0.00 | 0.00 | 0.00 | 76 | 1008.4 |
| 20260507182647 | 78 | 168 | 0.0 | 0.0 | 0.00 | 0.00 | 0.00 | 76 | 1008.3 |
| 20260507182143 | 79 | 115 | 2.0 | 3.0 | 0.00 | 0.00 | 0.00 | 75 | 1008.4 |
| 20260507181639 | 79 | 69 | 1.0 | 3.0 | 0.00 | 0.00 | 0.00 | 75 | 1008.4 |
| 20260507181136 | 79 | 130 | 3.0 | 3.0 | 0.00 | 0.00 | 0.00 | 75 | 1008.0 |
| 20260507180632 | 79 | 173 | 2.0 | 3.0 | 0.00 | 0.00 | 0.00 | 74 | 1008.0 |
| 20260507180130 | 79 | 236 | 4.0 | 6.0 | 0.00 | 0.00 | 0.00 | 74 | 1008.4 |
| 20260507175625 | 79 | 170 | 1.0 | 3.0 | 0.00 | 0.00 | 0.00 | 74 | 1008.0 |
| 20260507175123 | 79 | 80 | 0.0 | 0.0 | 0.00 | 0.00 | 0.00 | 73 | 1007.9 |
| 20260507174620 | 80 | 168 | 3.0 | 5.0 | 0.00 | 0.00 | 0.00 | 73 | 1007.9 |
| 20260507174118 | 80 | 190 | 3.0 | 6.0 | 0.00 | 0.00 | 0.00 | 73 | 1007.9 |
| 20260507173615 | 80 | 147 | 0.0 | 0.0 | 0.00 | 0.00 | 0.00 | 73 | 1007.8 |
| 20260507173112 | 80 | 113 | 0.0 | 1.0 | 0.00 | 0.00 | 0.00 | 73 | 1007.6 |
| 20260507172607 | 80 | 93 | 0.0 | 0.0 | 0.00 | 0.00 | 0.00 | 72 | 1007.6 |
| 20260507172105 | 80 | 180 | 1.0 | 2.0 | 0.00 | 0.00 | 0.00 | 72 | 1007.5 |
| 20260507171600 | 80 | 122 | 0.0 | 0.0 | 0.00 | 0.00 | 0.00 | 72 | 1007.6 |
| 20260507171057 | 80 | 122 | 2.0 | 3.0 | 0.00 | 0.00 | 0.00 | 72 | 1007.6 |
| 20260507170554 | 80 | 141 | 0.0 | 0.0 | 0.00 | 0.00 | 0.00 | 72 | 1007.7 |
| 20260507170051 | 80 | 94 | 3.0 | 5.0 | 0.00 | 0.00 | 0.00 | 72 | 1007.9 |
| 20260507165547 | 80 | 154 | 2.0 | 3.0 | 0.00 | 0.00 | 0.00 | 72 | 1007.6 |
| 20260507165044 | 80 | 108 | 0.0 | 0.0 | 0.00 | 0.00 | 0.00 | 72 | 1007.9 |
| 20260507164539 | 80 | 113 | 2.0 | 3.0 | 0.00 | 0.00 | 0.00 | 71 | 1008.0 |
| 20260507164037 | 80 | 150 | 0.0 | 1.0 | 0.00 | 0.00 | 0.00 | 71 | 1007.9 |
| 20260507163534 | 81 | 198 | 0.0 | 0.0 | 0.00 | 0.00 | 0.00 | 71 | 1007.8 |
| 20260507163032 | 81 | 175 | 0.0 | 1.0 | 0.00 | 0.00 | 0.00 | 70 | 1008.0 |
| 20260507162526 | 81 | 66 | 0.0 | 0.0 | 0.00 | 0.00 | 0.00 | 70 | 1008.2 |
| 20260507162023 | 81 | 38 | 1.0 | 1.0 | 0.00 | 0.00 | 0.00 | 70 | 1008.2 |
| 20260507161520 | 81 | 130 | 1.0 | 2.0 | 0.00 | 0.00 | 0.00 | 69 | 1008.1 |
| 20260507161017 | 81 | 184 | 2.0 | 2.0 | 0.00 | 0.00 | 0.00 | 69 | 1007.9 |
| 20260507160513 | 81 | 151 | 1.0 | 2.0 | 0.00 | 0.00 | 0.00 | 69 | 1007.8 |
| 20260507160009 | 81 | 121 | 0.0 | 1.0 | 0.00 | 0.00 | 0.00 | 68 | 1007.9 |
| 20260507155504 | 82 | 148 | 1.0 | 2.0 | 0.00 | 0.00 | 0.00 | 68 | 1007.8 |
| 20260507155002 | 82 | 141 | 0.0 | 1.0 | 0.00 | 0.00 | 0.00 | 67 | 1007.8 |
| 20260507154458 | 82 | 133 | 2.0 | 6.0 | 0.00 | 0.00 | 0.00 | 67 | 1007.5 |
| 20260507153955 | 82 | 180 | 2.0 | 3.0 | 0.00 | 0.00 | 0.00 | 67 | 1007.7 |
| 20260507153452 | 82 | 201 | 0.0 | 1.0 | 0.00 | 0.00 | 0.00 | 67 | 1007.6 |
| 20260507152949 | 82 | 103 | 0.0 | 0.0 | 0.00 | 0.00 | 0.00 | 66 | 1007.6 |
| 20260507152444 | 82 | 118 | 3.0 | 5.0 | 0.00 | 0.00 | 0.00 | 65 | 1007.2 |
| 20260507151941 | 82 | 153 | 0.0 | 0.0 | 0.00 | 0.00 | 0.00 | 64 | 1007.1 |
| 20260507151437 | 82 | 87 | 0.0 | 0.0 | 0.00 | 0.00 | 0.00 | 64 | 1006.9 |
| 20260507150934 | 82 | 229 | 0.0 | 0.0 | 0.00 | 0.00 | 0.00 | 63 | 1006.9 |
| 20260507150431 | 83 | 116 | 0.0 | 0.0 | 0.00 | 0.00 | 0.00 | 62 | 1006.7 |
| 20260507145928 | 83 | 108 | 0.0 | 0.0 | 0.00 | 0.00 | 0.00 | 62 | 1006.4 |
| 20260507145423 | 83 | 146 | 1.0 | 3.0 | 0.00 | 0.00 | 0.00 | 60 | 1006.5 |
| 20260507144921 | 83 | 119 | 0.0 | 0.0 | 0.00 | 0.00 | 0.00 | 59 | 1006.5 |
| 20260507144418 | 83 | 107 | 0.0 | 0.0 | 0.00 | 0.00 | 0.00 | 59 | 1006.3 |
| 20260507143914 | 83 | 221 | 0.0 | 0.0 | 0.00 | 0.00 | 0.00 | 59 | 1005.9 |
| 20260507143412 | 83 | 120 | 2.0 | 2.0 | 0.00 | 0.00 | 0.00 | 58 | 1006.1 |
| 20260507142908 | 83 | 238 | 0.0 | 0.0 | 0.00 | 0.00 | 0.00 | 57 | 1006.0 |
| 20260507142404 | 84 | 116 | 0.0 | 0.0 | 0.00 | 0.00 | 0.00 | 57 | 1005.9 |
| 20260507141901 | 84 | 358 | 0.0 | 0.0 | 0.00 | 0.00 | 0.00 | 57 | 1005.9 |
| 20260507141357 | 84 | 112 | 0.0 | 0.0 | 0.00 | 0.00 | 0.00 | 56 | 1005.8 |
| 20260507140854 | 84 | 166 | 1.0 | 2.0 | 0.00 | 0.00 | 0.00 | 56 | 1005.8 |
| 20260507140351 | 84 | 1 | 0.0 | 1.0 | 0.00 | 0.00 | 0.00 | 57 | 1005.7 |
| 20260507135849 | 84 | 78 | 0.0 | 0.0 | 0.00 | 0.00 | 0.00 | 56 | 1005.3 |
| 20260507135345 | 84 | 338 | 0.0 | 0.0 | 0.00 | 0.00 | 0.00 | 56 | 1005.3 |
| 20260507134843 | 84 | 58 | 0.0 | 0.0 | 0.00 | 0.00 | 0.00 | 56 | 1005.2 |
| 20260507134339 | 84 | 215 | 0.0 | 0.0 | 0.00 | 0.00 | 0.00 | 56 | 1005.1 |
| 20260507133835 | 84 | 285 | 0.0 | 0.0 | 0.00 | 0.00 | 0.00 | 56 | 1005.2 |
| 20260507133330 | 84 | 36 | 0.0 | 0.0 | 0.00 | 0.00 | 0.00 | 56 | 1005.1 |
| 20260507132830 | 84 | 323 | 0.0 | 0.0 | 0.00 | 0.00 | 0.00 | 57 | 1004.8 |
| 20260507132325 | 85 | 80 | 0.0 | 0.0 | 0.00 | 0.00 | 0.00 | 56 | 1004.8 |
| 20260507131823 | 85 | 44 | 0.0 | 0.0 | 0.00 | 0.00 | 0.00 | 56 | 1005.1 |
| 20260507131319 | 85 | 144 | 0.0 | 0.0 | 0.00 | 0.00 | 0.00 | 56 | 1004.6 |
| 20260507130816 | 85 | 138 | 0.0 | 1.0 | 0.00 | 0.00 | 0.00 | 56 | 1004.7 |
| 20260507130313 | 85 | 157 | 0.0 | 0.0 | 0.00 | 0.00 | 0.00 | 55 | 1004.6 |
| 20260507125812 | 85 | 95 | 0.0 | 0.0 | 0.00 | 0.00 | 0.00 | 55 | 1004.5 |
| 20260507125309 | 86 | 359 | 0.0 | 0.0 | 0.00 | 0.00 | 0.00 | 55 | 1004.7 |
| 20260507124806 | 86 | 21 | 0.0 | 0.0 | 0.00 | 0.00 | 0.00 | 54 | 1004.6 |
| 20260507124302 | 86 | 68 | 0.0 | 0.0 | 0.00 | 0.00 | 0.00 | 54 | 1004.7 |
| 20260507123801 | 86 | 222 | 0.0 | 1.0 | 0.00 | 0.00 | 0.00 | 54 | 1004.5 |
| 20260507123258 | 86 | 195 | 0.0 | 0.0 | 0.00 | 0.00 | 0.00 | 53 | 1004.5 |
| 20260507122754 | 86 | 348 | 0.0 | 0.0 | 0.00 | 0.00 | 0.00 | 53 | 1004.4 |
| 20260507122249 | 86 | 8 | 0.0 | 0.0 | 0.00 | 0.00 | 0.00 | 53 | 1004.4 |
| 20260507121746 | 87 | 294 | 0.0 | 0.0 | 0.00 | 0.00 | 0.00 | 53 | 1004.4 |
| 20260507121241 | 87 | 115 | 0.0 | 1.0 | 0.00 | 0.00 | 0.00 | 52 | 1004.3 |
| 20260507120738 | 87 | 155 | 1.0 | 2.0 | 0.00 | 0.00 | 0.00 | 52 | 1004.4 |
| 20260507120235 | 87 | 96 | 0.0 | 0.0 | 0.00 | 0.00 | 0.00 | 52 | 1004.3 |
| 20260507115731 | 88 | 107 | 0.0 | 1.0 | 0.00 | 0.00 | 0.00 | 51 | 1004.3 |
| 20260507115227 | 88 | 315 | 0.0 | 0.0 | 0.00 | 0.00 | 0.00 | 52 | 1004.5 |
| 20260507114722 | 87 | 326 | 0.0 | 0.0 | 0.00 | 0.00 | 0.00 | 51 | 1004.5 |
| 20260507114220 | 87 | 175 | 2.0 | 3.0 | 0.00 | 0.00 | 0.00 | 51 | 1004.5 |
| 20260507113718 | 87 | 338 | 2.0 | 5.0 | 0.00 | 0.00 | 0.00 | 51 | 1004.4 |
| 20260507113214 | 87 | 33 | 0.0 | 0.0 | 0.00 | 0.00 | 0.00 | 52 | 1004.7 |
| 20260507112712 | 88 | 350 | 0.0 | 1.0 | 0.00 | 0.00 | 0.00 | 51 | 1004.5 |
| 20260507112209 | 87 | 43 | 0.0 | 0.0 | 0.00 | 0.00 | 0.00 | 51 | 1004.7 |
| 20260507111706 | 89 | 65 | 1.0 | 3.0 | 0.00 | 0.00 | 0.00 | 50 | 1004.5 |
| 20260507111203 | 88 | 311 | 0.0 | 0.0 | 0.00 | 0.00 | 0.00 | 52 | 1004.7 |
| 20260507110658 | 88 | 153 | 3.0 | 7.0 | 0.00 | 0.00 | 0.00 | 51 | 1004.4 |
| 20260507110156 | 88 | 161 | 4.0 | 5.0 | 0.00 | 0.00 | 0.00 | 50 | 1004.7 |
| 20260507105653 | 89 | 228 | 0.0 | 0.0 | 0.00 | 0.00 | 0.00 | 50 | 1004.4 |
| 20260507105148 | 89 | 318 | 0.0 | 0.0 | 0.00 | 0.00 | 0.00 | 51 | 1004.6 |
| 20260507104646 | 88 | 140 | 1.0 | 2.0 | 0.00 | 0.00 | 0.00 | 51 | 1004.7 |
| 20260507104142 | 88 | 202 | 0.0 | 1.0 | 0.00 | 0.00 | 0.00 | 50 | 1004.7 |
| 20260507103638 | 89 | 134 | 1.0 | 3.0 | 0.00 | 0.00 | 0.00 | 50 | 1004.7 |
| 20260507103135 | 89 | 185 | 2.0 | 3.0 | 0.00 | 0.00 | 0.00 | 50 | 1004.5 |
| 20260507102632 | 89 | 217 | 0.0 | 0.0 | 0.00 | 0.00 | 0.00 | 49 | 1004.8 |
| 20260507102128 | 90 | 49 | 2.0 | 5.0 | 0.00 | 0.00 | 0.00 | 49 | 1004.9 |
| 20260507101624 | 90 | 63 | 1.0 | 1.0 | 0.00 | 0.00 | 0.00 | 47 | 1005.1 |
| 20260507101120 | 90 | 259 | 0.0 | 0.0 | 0.00 | 0.00 | 0.00 | 48 | 1004.9 |
| 20260507100618 | 89 | 313 | 0.0 | 0.0 | 0.00 | 0.00 | 0.00 | 51 | 1004.7 |
| 20260507100115 | 89 | 11 | 0.0 | 0.0 | 0.00 | 0.00 | 0.00 | 48 | 1005.1 |
| 20260507095613 | 89 | 33 | 0.0 | 0.0 | 0.00 | 0.00 | 0.00 | 50 | 1005.1 |
| 20260507095109 | 89 | 166 | 2.0 | 2.0 | 0.00 | 0.00 | 0.00 | 49 | 1005.2 |
| 20260507094606 | 89 | 166 | 0.0 | 1.0 | 0.00 | 0.00 | 0.00 | 49 | 1005.3 |
| 20260507094103 | 89 | 20 | 0.0 | 1.0 | 0.00 | 0.00 | 0.00 | 50 | 1005.4 |
| 20260507093600 | 89 | 88 | 0.0 | 1.0 | 0.00 | 0.00 | 0.00 | 51 | 1005.4 |
| 20260507093059 | 89 | 140 | 3.0 | 5.0 | 0.00 | 0.00 | 0.00 | 50 | 1005.5 |
| 20260507092555 | 89 | 164 | 3.0 | 5.0 | 0.00 | 0.00 | 0.00 | 50 | 1005.4 |
| 20260507092051 | 89 | 318 | 0.0 | 0.0 | 0.00 | 0.00 | 0.00 | 50 | 1005.4 |
| 20260507091548 | 87 | 303 | 0.0 | 0.0 | 0.00 | 0.00 | 0.00 | 53 | 1005.5 |
| 20260507091045 | 89 | 162 | 0.0 | 0.0 | 0.00 | 0.00 | 0.00 | 52 | 1005.5 |
| 20260507090540 | 89 | 166 | 1.0 | 2.0 | 0.00 | 0.00 | 0.00 | 51 | 1005.6 |
| 20260507090037 | 89 | 188 | 0.0 | 0.0 | 0.00 | 0.00 | 0.00 | 52 | 1005.4 |
| 20260507085535 | 88 | 316 | 2.0 | 3.0 | 0.00 | 0.00 | 0.00 | 54 | 1005.6 |
| 20260507085031 | 88 | 318 | 0.0 | 0.0 | 0.00 | 0.00 | 0.00 | 53 | 1005.7 |
| 20260507084528 | 89 | 250 | 0.0 | 0.0 | 0.00 | 0.00 | 0.00 | 53 | 1005.7 |
| 20260507084025 | 88 | 119 | 2.0 | 2.0 | 0.00 | 0.00 | 0.00 | 54 | 1005.8 |
| 20260507083521 | 89 | 159 | 3.0 | 5.0 | 0.00 | 0.00 | 0.00 | 53 | 1005.8 |
| 20260507083018 | 87 | 117 | 0.0 | 1.0 | 0.00 | 0.00 | 0.00 | 54 | 1005.8 |
| 20260507082514 | 89 | 108 | 4.0 | 6.0 | 0.00 | 0.00 | 0.00 | 53 | 1005.9 |
| 20260507082010 | 89 | 218 | 0.0 | 0.0 | 0.00 | 0.00 | 0.00 | 54 | 1006.0 |
| 20260507081507 | 88 | 305 | 0.0 | 0.0 | 0.00 | 0.00 | 0.00 | 55 | 1006.3 |
| 20260507081004 | 87 | 6 | 1.0 | 1.0 | 0.00 | 0.00 | 0.00 | 56 | 1006.4 |
| 20260507080459 | 87 | 300 | 0.0 | 0.0 | 0.00 | 0.00 | 0.00 | 57 | 1006.3 |
| 20260507075955 | 87 | 95 | 0.0 | 0.0 | 0.00 | 0.00 | 0.00 | 58 | 1006.5 |
| 20260507075452 | 87 | 4 | 1.0 | 2.0 | 0.00 | 0.00 | 0.00 | 58 | 1006.5 |
| 20260507074948 | 88 | 317 | 0.0 | 0.0 | 0.00 | 0.00 | 0.00 | 57 | 1006.6 |
| 20260507074445 | 87 | 290 | 0.0 | 0.0 | 0.00 | 0.00 | 0.00 | 59 | 1006.8 |
| 20260507073943 | 87 | 328 | 0.0 | 0.0 | 0.00 | 0.00 | 0.00 | 60 | 1006.7 |
| 20260507073439 | 87 | 61 | 0.0 | 0.0 | 0.00 | 0.00 | 0.00 | 58 | 1007.0 |
| 20260507072936 | 86 | 356 | 0.0 | 0.0 | 0.00 | 0.00 | 0.00 | 60 | 1007.1 |
| 20260507072434 | 87 | 20 | 2.0 | 3.0 | 0.00 | 0.00 | 0.00 | 60 | 1006.8 |
| 20260507071931 | 85 | 162 | 2.0 | 3.0 | 0.00 | 0.00 | 0.00 | 63 | 1006.9 |
| 20260507071428 | 86 | 148 | 2.0 | 5.0 | 0.00 | 0.00 | 0.00 | 60 | 1007.2 |
| 20260507070924 | 87 | 63 | 0.0 | 0.0 | 0.00 | 0.00 | 0.00 | 63 | 1007.3 |
| 20260507070422 | 86 | 304 | 0.0 | 0.0 | 0.00 | 0.00 | 0.00 | 64 | 1007.3 |
| 20260507065918 | 85 | 154 | 0.0 | 1.0 | 0.00 | 0.00 | 0.00 | 64 | 1007.6 |
| 20260507065415 | 85 | 17 | 0.0 | 0.0 | 0.00 | 0.00 | 0.00 | 63 | 1007.6 |
| 20260507064912 | 86 | 236 | 0.0 | 0.0 | 0.00 | 0.00 | 0.00 | 64 | 1007.6 |
| 20260507064410 | 85 | 308 | 1.0 | 2.0 | 0.00 | 0.00 | 0.00 | 66 | 1007.6 |
| 20260507063908 | 84 | 141 | 2.0 | 3.0 | 0.00 | 0.00 | 0.00 | 64 | 1007.7 |
| 20260507063405 | 83 | 313 | 1.0 | 2.0 | 0.00 | 0.00 | 0.00 | 67 | 1008.0 |
| 20260507062902 | 83 | 32 | 1.0 | 2.0 | 0.00 | 0.00 | 0.00 | 67 | 1008.0 |
| 20260507062359 | 85 | 21 | 0.0 | 1.0 | 0.00 | 0.00 | 0.00 | 65 | 1007.9 |
| 20260507061856 | 85 | 85 | 0.0 | 0.0 | 0.00 | 0.00 | 0.00 | 66 | 1008.2 |
| 20260507061354 | 84 | 318 | 0.0 | 0.0 | 0.00 | 0.00 | 0.00 | 67 | 1008.3 |
| 20260507060853 | 84 | 308 | 0.0 | 1.0 | 0.00 | 0.00 | 0.00 | 65 | 1008.2 |
| 20260507060349 | 84 | 231 | 0.0 | 1.0 | 0.00 | 0.00 | 0.00 | 66 | 1008.3 |
| 20260507055846 | 84 | 21 | 0.0 | 0.0 | 0.00 | 0.00 | 0.00 | 65 | 1008.5 |
| 20260507055340 | 84 | 300 | 0.0 | 0.0 | 0.00 | 0.00 | 0.00 | 63 | 1008.7 |
| 20260507054838 | 85 | 353 | 0.0 | 0.0 | 0.00 | 0.00 | 0.00 | 66 | 1008.8 |
| 20260507054334 | 85 | 355 | 0.0 | 0.0 | 0.00 | 0.00 | 0.00 | 65 | 1008.7 |
| 20260507053831 | 83 | 349 | 0.0 | 0.0 | 0.00 | 0.00 | 0.00 | 68 | 1008.8 |
| 20260507053329 | 84 | 44 | 2.0 | 3.0 | 0.00 | 0.00 | 0.00 | 68 | 1008.8 |
| 20260507052828 | 83 | 340 | 1.0 | 2.0 | 0.00 | 0.00 | 0.00 | 70 | 1008.8 |
| 20260507052324 | 84 | 277 | 0.0 | 0.0 | 0.00 | 0.00 | 0.00 | 67 | 1008.8 |
| 20260507051822 | 82 | 324 | 0.0 | 0.0 | 0.00 | 0.00 | 0.00 | 69 | 1009.0 |
| 20260507051319 | 83 | 88 | 0.0 | 0.0 | 0.00 | 0.00 | 0.00 | 70 | 1009.1 |
| 20260507050816 | 84 | 30 | 0.0 | 0.0 | 0.00 | 0.00 | 0.00 | 70 | 1009.0 |
| 20260507050312 | 84 | 325 | 0.0 | 0.0 | 0.00 | 0.00 | 0.00 | 69 | 1008.9 |
| 20260507045809 | 82 | 322 | 0.0 | 0.0 | 0.00 | 0.00 | 0.00 | 71 | 1009.1 |
| 20260507045306 | 82 | 279 | 0.0 | 0.0 | 0.00 | 0.00 | 0.00 | 74 | 1009.2 |
| 20260507044803 | 80 | 151 | 0.0 | 1.0 | 0.00 | 0.00 | 0.00 | 75 | 1009.1 |
| 20260507044259 | 81 | 124 | 1.0 | 3.0 | 0.00 | 0.00 | 0.00 | 74 | 1009.4 |
| 20260507043755 | 80 | 229 | 0.0 | 0.0 | 0.00 | 0.00 | 0.00 | 75 | 1009.1 |
| 20260507043252 | 80 | 321 | 0.0 | 0.0 | 0.00 | 0.00 | 0.00 | 75 | 1009.1 |
| 20260507042748 | 80 | 310 | 0.0 | 0.0 | 0.00 | 0.00 | 0.00 | 76 | 1009.2 |
| 20260507042243 | 78 | 47 | 0.0 | 0.0 | 0.00 | 0.00 | 0.00 | 78 | 1009.4 |
| 20260507041741 | 79 | 205 | 2.0 | 5.0 | 0.00 | 0.00 | 0.00 | 77 | 1009.1 |
| 20260507041237 | 78 | 332 | 0.0 | 0.0 | 0.00 | 0.00 | 0.00 | 78 | 1009.2 |
| 20260507040735 | 79 | 133 | 1.0 | 1.0 | 0.00 | 0.00 | 0.00 | 76 | 1009.3 |
| 20260507040231 | 79 | 322 | 0.0 | 0.0 | 0.00 | 0.00 | 0.00 | 79 | 1009.2 |
| 20260507035727 | 80 | 272 | 0.0 | 0.0 | 0.00 | 0.00 | 0.00 | 78 | 1009.2 |
| 20260507035222 | 79 | 348 | 0.0 | 0.0 | 0.00 | 0.00 | 0.00 | 78 | 1009.3 |
| 20260507034720 | 78 | 144 | 1.0 | 2.0 | 0.00 | 0.00 | 0.00 | 77 | 1009.1 |
| 20260507034217 | 79 | 117 | 4.0 | 5.0 | 0.00 | 0.00 | 0.00 | 77 | 1009.5 |
| 20260507033715 | 78 | 40 | 0.0 | 0.0 | 0.00 | 0.00 | 0.00 | 81 | 1009.1 |
| 20260507033212 | 76 | 326 | 0.0 | 0.0 | 0.00 | 0.00 | 0.00 | 84 | 1009.1 |
| 20260507032710 | 76 | 163 | 0.0 | 0.0 | 0.00 | 0.00 | 0.00 | 84 | 1008.9 |
| 20260507032205 | 75 | 257 | 0.0 | 0.0 | 0.00 | 0.00 | 0.00 | 85 | 1008.9 |
| 20260507031702 | 75 | 62 | 0.0 | 0.0 | 0.00 | 0.00 | 0.00 | 86 | 1008.9 |
| 20260507031159 | 75 | 141 | 0.0 | 1.0 | 0.00 | 0.00 | 0.00 | 86 | 1008.8 |
| 20260507030656 | 76 | 304 | 2.0 | 3.0 | 0.00 | 0.00 | 0.00 | 85 | 1008.9 |
| 20260507030154 | 76 | 135 | 0.0 | 0.0 | 0.00 | 0.00 | 0.00 | 85 | 1008.5 |
| 20260507025651 | 76 | 162 | 0.0 | 0.0 | 0.00 | 0.00 | 0.00 | 86 | 1008.9 |
| 20260507025147 | 76 | 111 | 0.0 | 0.0 | 0.00 | 0.00 | 0.00 | 87 | 1009.0 |
| 20260507024645 | 74 | 267 | 1.0 | 5.0 | 0.00 | 0.00 | 0.00 | 88 | 1008.4 |
| 20260507024143 | 74 | 158 | 0.0 | 1.0 | 0.00 | 0.00 | 0.00 | 89 | 1008.8 |
| 20260507023638 | 74 | 169 | 0.0 | 0.0 | 0.00 | 0.00 | 0.00 | 89 | 1008.2 |
| 20260507023136 | 74 | 327 | 0.0 | 0.0 | 0.00 | 0.00 | 0.00 | 89 | 1008.3 |
| 20260507022632 | 75 | 193 | 0.0 | 0.0 | 0.00 | 0.00 | 0.00 | 88 | 1008.5 |
| 20260507022127 | 74 | 177 | 0.0 | 0.0 | 0.00 | 0.00 | 0.00 | 89 | 1008.4 |
| 20260507021625 | 74 | 103 | 0.0 | 0.0 | 0.00 | 0.00 | 0.00 | 91 | 1008.2 |
| 20260507021120 | 73 | 167 | 3.0 | 5.0 | 0.00 | 0.00 | 0.00 | 91 | 1008.3 |
| 20260507020618 | 73 | 166 | 3.0 | 7.0 | 0.00 | 0.00 | 0.00 | 91 | 1008.3 |
| 20260507020114 | 73 | 1 | 0.0 | 0.0 | 0.00 | 0.00 | 0.00 | 93 | 1008.0 |
| 20260507015613 | 73 | 81 | 0.0 | 0.0 | 0.00 | 0.00 | 0.00 | 93 | 1008.0 |
| 20260507015110 | 73 | 147 | 1.0 | 2.0 | 0.00 | 0.00 | 0.00 | 93 | 1008.1 |
| 20260507014607 | 73 | 122 | 0.0 | 1.0 | 0.00 | 0.00 | 0.00 | 93 | 1008.2 |
| 20260507014102 | 72 | 80 | 1.0 | 2.0 | 0.00 | 0.00 | 0.00 | 94 | 1007.7 |
| 20260507013559 | 72 | 98 | 0.0 | 0.0 | 0.00 | 0.00 | 0.00 | 94 | 1008.0 |
| 20260507013056 | 72 | 17 | 0.0 | 0.0 | 0.00 | 0.00 | 0.00 | 94 | 1007.8 |
| 20260507012554 | 72 | 208 | 0.0 | 0.0 | 0.00 | 0.00 | 0.00 | 94 | 1007.9 |
| 20260507012049 | 72 | 26 | 0.0 | 0.0 | 0.00 | 0.00 | 0.00 | 94 | 1007.8 |
| 20260507011547 | 72 | 157 | 0.0 | 0.0 | 0.00 | 0.00 | 0.00 | 95 | 1007.6 |
| 20260507011043 | 72 | 111 | 0.0 | 0.0 | 0.00 | 0.00 | 0.00 | 95 | 1007.6 |
| 20260507010538 | 72 | 321 | 0.0 | 0.0 | 0.00 | 0.00 | 0.00 | 95 | 1007.7 |
| 20260507010034 | 72 | 315 | 0.0 | 0.0 | 0.00 | 0.00 | 0.00 | 95 | 1007.7 |
| 20260507005532 | 72 | 302 | 0.0 | 0.0 | 0.00 | 0.00 | 0.00 | 95 | 1007.7 |
| 20260507005028 | 72 | 119 | 0.0 | 0.0 | 0.00 | 0.00 | 0.00 | 95 | 1007.7 |
| 20260507004525 | 72 | 170 | 3.0 | 5.0 | 0.00 | 0.00 | 0.00 | 95 | 1007.6 |
| 20260507004023 | 72 | 140 | 0.0 | 0.0 | 0.00 | 0.00 | 0.00 | 95 | 1007.5 |
| 20260507003518 | 72 | 143 | 5.0 | 6.0 | 0.00 | 0.00 | 0.00 | 94 | 1007.2 |
| 20260507003013 | 72 | 149 | 0.0 | 0.0 | 0.00 | 0.00 | 0.00 | 94 | 1007.1 |
| 20260507002510 | 72 | 136 | 0.0 | 0.0 | 0.00 | 0.00 | 0.00 | 94 | 1007.2 |
| 20260507002006 | 72 | 165 | 0.0 | 0.0 | 0.00 | 0.00 | 0.00 | 94 | 1007.0 |
| 20260507001503 | 72 | 192 | 0.0 | 0.0 | 0.00 | 0.00 | 0.00 | 94 | 1007.0 |
| 20260507001000 | 72 | 91 | 0.0 | 0.0 | 0.00 | 0.00 | 0.00 | 93 | 1006.9 |
| 20260507000456 | 72 | 156 | 0.0 | 0.0 | 0.00 | 0.00 | 0.00 | 93 | 1006.7 |
| 20260506235952 | 72 | 115 | 0.0 | 0.0 | 0.00 | 0.00 | 0.00 | 93 | 1006.7 |
| 20260506235450 | 72 | 327 | 0.0 | 0.0 | 0.00 | 0.00 | 0.00 | 93 | 1006.8 |
| 20260506234945 | 72 | 188 | 0.0 | 0.0 | 0.00 | 0.00 | 0.00 | 93 | 1006.8 |
| 20260506234443 | 72 | 184 | 0.0 | 0.0 | 0.00 | 0.00 | 0.00 | 93 | 1006.8 |
| 20260506233940 | 72 | 94 | 0.0 | 0.0 | 0.00 | 0.00 | 0.00 | 93 | 1007.0 |
| 20260506233437 | 72 | 187 | 2.0 | 3.0 | 0.00 | 0.00 | 0.00 | 93 | 1006.6 |
| 20260506232933 | 72 | 104 | 0.0 | 0.0 | 0.00 | 0.00 | 0.00 | 93 | 1006.5 |
| 20260506232429 | 72 | 144 | 0.0 | 0.0 | 0.00 | 0.00 | 0.00 | 93 | 1006.5 |
| 20260506231925 | 72 | 207 | 0.0 | 0.0 | 0.00 | 0.00 | 0.00 | 93 | 1006.5 |
| 20260506231423 | 72 | 203 | 0.0 | 0.0 | 0.00 | 0.00 | 0.00 | 93 | 1006.4 |
| 20260506230920 | 72 | 315 | 0.0 | 0.0 | 0.00 | 0.00 | 0.00 | 93 | 1006.4 |
| 20260506230416 | 72 | 147 | 2.0 | 3.0 | 0.00 | 0.00 | 0.00 | 93 | 1006.4 |
| 20260506225913 | 72 | 111 | 0.0 | 0.0 | 0.00 | 0.00 | 0.00 | 93 | 1006.0 |
| 20260506225411 | 72 | 143 | 0.0 | 0.0 | 0.00 | 0.00 | 0.00 | 93 | 1006.0 |
| 20260506224907 | 72 | 142 | 0.0 | 0.0 | 0.00 | 0.00 | 0.00 | 93 | 1005.9 |
| 20260506224405 | 72 | 133 | 1.0 | 2.0 | 0.00 | 0.00 | 0.00 | 93 | 1005.6 |
| 20260506223900 | 72 | 102 | 0.0 | 2.0 | 0.00 | 0.00 | 0.00 | 93 | 1005.5 |
| 20260506223356 | 72 | 123 | 0.0 | 0.0 | 0.00 | 0.00 | 0.00 | 93 | 1005.6 |
| 20260506222853 | 72 | 177 | 0.0 | 0.0 | 0.00 | 0.00 | 0.00 | 93 | 1005.5 |
| 20260506222349 | 72 | 236 | 2.0 | 5.0 | 0.00 | 0.00 | 0.00 | 93 | 1005.6 |
| 20260506221847 | 72 | 213 | 0.0 | 0.0 | 0.00 | 0.00 | 0.00 | 93 | 1005.5 |
| 20260506221344 | 72 | 201 | 0.0 | 2.0 | 0.00 | 0.00 | 0.00 | 93 | 1005.5 |
| 20260506220842 | 72 | 118 | 4.0 | 5.0 | 0.00 | 0.00 | 0.00 | 93 | 1005.3 |
| 20260506220337 | 73 | 203 | 0.0 | 0.0 | 0.00 | 0.00 | 0.00 | 93 | 1005.4 |
| 20260506215834 | 73 | 117 | 0.0 | 0.0 | 0.00 | 0.00 | 0.00 | 93 | 1005.1 |
| 20260506215330 | 73 | 110 | 1.0 | 2.0 | 0.00 | 0.00 | 0.00 | 93 | 1005.4 |
| 20260506214826 | 73 | 119 | 0.0 | 1.0 | 0.00 | 0.00 | 0.00 | 92 | 1005.4 |